sensor_id;sensor_type;location;lat;lon;timestamp;temperature;humidity
25753;DHT22;13600;50.816;4.416;2022-10-16T00:01:30;15.40;99.90
25753;DHT22;13600;50.816;4.416;2022-10-16T00:03:58;15.40;99.90
25753;DHT22;13600;50.816;4.416;2022-10-16T00:06:25;15.50;99.90
25753;DHT22;13600;50.816;4.416;2022-10-16T00:08:51;15.40;99.90
25753;DHT22;13600;50.816;4.416;2022-10-16T00:11:23;15.40;99.90
25753;DHT22;13600;50.816;4.416;2022-10-16T00:13:51;15.50;99.90
25753;DHT22;13600;50.816;4.416;2022-10-16T00:16:17;15.50;99.90
25753;DHT22;13600;50.816;4.416;2022-10-16T00:18:43;15.50;99.90
25753;DHT22;13600;50.816;4.416;2022-10-16T00:21:14;15.50;99.90
25753;DHT22;13600;50.816;4.416;2022-10-16T00:23:40;15.50;99.90
25753;DHT22;13600;50.816;4.416;2022-10-16T00:26:08;15.50;99.90
25753;DHT22;13600;50.816;4.416;2022-10-16T00:28:35;15.40;99.90
25753;DHT22;13600;50.816;4.416;2022-10-16T00:31:05;15.20;99.90
25753;DHT22;13600;50.816;4.416;2022-10-16T00:33:32;15.30;99.90
25753;DHT22;13600;50.816;4.416;2022-10-16T00:35:58;15.40;99.90
25753;DHT22;13600;50.816;4.416;2022-10-16T00:38:24;15.30;99.90
25753;DHT22;13600;50.816;4.416;2022-10-16T00:40:50;15.40;99.90
25753;DHT22;13600;50.816;4.416;2022-10-16T00:43:37;15.20;99.90
25753;DHT22;13600;50.816;4.416;2022-10-16T00:46:10;15.00;99.90
25753;DHT22;13600;50.816;4.416;2022-10-16T00:48:36;15.10;99.90
25753;DHT22;13600;50.816;4.416;2022-10-16T00:51:02;15.10;99.90
25753;DHT22;13600;50.816;4.416;2022-10-16T00:53:29;15.20;99.90
25753;DHT22;13600;50.816;4.416;2022-10-16T00:55:55;15.20;99.90
25753;DHT22;13600;50.816;4.416;2022-10-16T00:58:21;15.20;99.90
25753;DHT22;13600;50.816;4.416;2022-10-16T01:00:46;15.20;99.90
25753;DHT22;13600;50.816;4.416;2022-10-16T01:06:07;15.20;99.90
25753;DHT22;13600;50.816;4.416;2022-10-16T01:14:06;15.10;99.90
25753;DHT22;13600;50.816;4.416;2022-10-16T01:16:38;15.20;99.90
25753;DHT22;13600;50.816;4.416;2022-10-16T01:21:43;15.10;99.90
25753;DHT22;13600;50.816;4.416;2022-10-16T01:27:09;15.10;99.90
25753;DHT22;13600;50.816;4.416;2022-10-16T01:29:51;15.10;99.90
25753;DHT22;13600;50.816;4.416;2022-10-16T01:32:28;15.10;99.90
25753;DHT22;13600;50.816;4.416;2022-10-16T01:35:10;15.00;99.90
25753;DHT22;13600;50.816;4.416;2022-10-16T01:37:46;15.00;99.90
25753;DHT22;13600;50.816;4.416;2022-10-16T01:40:16;15.20;99.90
25753;DHT22;13600;50.816;4.416;2022-10-16T01:42:48;15.20;99.90
25753;DHT22;13600;50.816;4.416;2022-10-16T01:45:17;15.10;99.90
25753;DHT22;13600;50.816;4.416;2022-10-16T01:47:44;15.10;99.90
25753;DHT22;13600;50.816;4.416;2022-10-16T01:50:12;15.00;99.90
25753;DHT22;13600;50.816;4.416;2022-10-16T01:52:43;15.00;99.90
25753;DHT22;13600;50.816;4.416;2022-10-16T01:55:13;15.00;99.90
25753;DHT22;13600;50.816;4.416;2022-10-16T01:57:42;15.00;99.90
25753;DHT22;13600;50.816;4.416;2022-10-16T02:00:12;15.00;99.90
25753;DHT22;13600;50.816;4.416;2022-10-16T02:02:40;15.10;99.90
25753;DHT22;13600;50.816;4.416;2022-10-16T02:05:12;15.00;99.90
25753;DHT22;13600;50.816;4.416;2022-10-16T02:07:41;15.10;99.90
25753;DHT22;13600;50.816;4.416;2022-10-16T02:10:08;15.10;99.90
25753;DHT22;13600;50.816;4.416;2022-10-16T02:12:37;15.10;99.90
25753;DHT22;13600;50.816;4.416;2022-10-16T02:15:06;14.90;99.90
25753;DHT22;13600;50.816;4.416;2022-10-16T02:17:31;14.90;99.90
25753;DHT22;13600;50.816;4.416;2022-10-16T02:19:58;14.90;99.90
25753;DHT22;13600;50.816;4.416;2022-10-16T02:22:28;14.90;99.90
25753;DHT22;13600;50.816;4.416;2022-10-16T02:25:06;14.90;99.90
25753;DHT22;13600;50.816;4.416;2022-10-16T02:30:36;15.00;99.90
25753;DHT22;13600;50.816;4.416;2022-10-16T02:33:06;15.00;99.90
25753;DHT22;13600;50.816;4.416;2022-10-16T02:35:33;15.20;99.90
25753;DHT22;13600;50.816;4.416;2022-10-16T02:37:59;15.10;99.90
25753;DHT22;13600;50.816;4.416;2022-10-16T02:40:26;15.10;99.90
25753;DHT22;13600;50.816;4.416;2022-10-16T02:42:53;15.00;99.90
25753;DHT22;13600;50.816;4.416;2022-10-16T02:45:19;14.90;99.90
25753;DHT22;13600;50.816;4.416;2022-10-16T02:47:45;15.00;99.90
25753;DHT22;13600;50.816;4.416;2022-10-16T02:50:10;15.20;99.90
25753;DHT22;13600;50.816;4.416;2022-10-16T02:52:36;15.00;99.90
25753;DHT22;13600;50.816;4.416;2022-10-16T02:55:02;14.90;99.90
25753;DHT22;13600;50.816;4.416;2022-10-16T02:57:28;14.90;99.90
25753;DHT22;13600;50.816;4.416;2022-10-16T02:59:54;15.00;99.90
25753;DHT22;13600;50.816;4.416;2022-10-16T03:02:19;14.90;99.90
25753;DHT22;13600;50.816;4.416;2022-10-16T03:04:45;14.90;99.90
25753;DHT22;13600;50.816;4.416;2022-10-16T03:07:11;14.90;99.90
25753;DHT22;13600;50.816;4.416;2022-10-16T03:09:37;14.90;99.90
25753;DHT22;13600;50.816;4.416;2022-10-16T03:12:02;14.80;99.90
25753;DHT22;13600;50.816;4.416;2022-10-16T03:14:28;14.70;99.90
25753;DHT22;13600;50.816;4.416;2022-10-16T03:16:54;14.70;99.90
25753;DHT22;13600;50.816;4.416;2022-10-16T03:19:19;14.90;99.90
25753;DHT22;13600;50.816;4.416;2022-10-16T03:21:45;15.00;99.90
25753;DHT22;13600;50.816;4.416;2022-10-16T03:24:11;15.10;99.90
25753;DHT22;13600;50.816;4.416;2022-10-16T03:26:37;15.20;99.90
25753;DHT22;13600;50.816;4.416;2022-10-16T03:29:03;15.10;99.90
25753;DHT22;13600;50.816;4.416;2022-10-16T03:31:29;15.00;99.90
25753;DHT22;13600;50.816;4.416;2022-10-16T03:33:55;14.80;99.90
25753;DHT22;13600;50.816;4.416;2022-10-16T03:36:21;14.90;99.90
25753;DHT22;13600;50.816;4.416;2022-10-16T03:38:47;15.00;99.90
25753;DHT22;13600;50.816;4.416;2022-10-16T03:41:13;15.10;99.90
25753;DHT22;13600;50.816;4.416;2022-10-16T03:43:39;15.10;99.90
25753;DHT22;13600;50.816;4.416;2022-10-16T03:46:05;14.90;99.90
25753;DHT22;13600;50.816;4.416;2022-10-16T03:48:31;14.90;99.90
25753;DHT22;13600;50.816;4.416;2022-10-16T03:50:58;14.80;99.90
25753;DHT22;13600;50.816;4.416;2022-10-16T03:53:24;14.90;99.90
25753;DHT22;13600;50.816;4.416;2022-10-16T03:55:49;14.80;99.90
25753;DHT22;13600;50.816;4.416;2022-10-16T03:58:15;14.80;99.90
25753;DHT22;13600;50.816;4.416;2022-10-16T04:00:42;14.90;99.90
25753;DHT22;13600;50.816;4.416;2022-10-16T04:03:08;14.90;99.90
25753;DHT22;13600;50.816;4.416;2022-10-16T04:05:33;14.80;99.90
25753;DHT22;13600;50.816;4.416;2022-10-16T04:07:59;14.80;99.90
25753;DHT22;13600;50.816;4.416;2022-10-16T04:10:25;14.80;99.90
25753;DHT22;13600;50.816;4.416;2022-10-16T04:12:50;14.90;99.90
25753;DHT22;13600;50.816;4.416;2022-10-16T04:15:16;15.00;99.90
25753;DHT22;13600;50.816;4.416;2022-10-16T04:17:42;14.90;99.90
25753;DHT22;13600;50.816;4.416;2022-10-16T04:20:07;14.90;99.90
25753;DHT22;13600;50.816;4.416;2022-10-16T04:22:33;14.90;99.90
25753;DHT22;13600;50.816;4.416;2022-10-16T04:24:59;14.80;99.90
25753;DHT22;13600;50.816;4.416;2022-10-16T04:27:25;14.90;99.90
25753;DHT22;13600;50.816;4.416;2022-10-16T04:29:50;14.90;99.90
25753;DHT22;13600;50.816;4.416;2022-10-16T04:32:16;14.90;99.90
25753;DHT22;13600;50.816;4.416;2022-10-16T04:34:42;14.80;99.90
25753;DHT22;13600;50.816;4.416;2022-10-16T04:37:07;14.80;99.90
25753;DHT22;13600;50.816;4.416;2022-10-16T04:39:33;14.70;99.90
25753;DHT22;13600;50.816;4.416;2022-10-16T04:41:58;14.80;99.90
25753;DHT22;13600;50.816;4.416;2022-10-16T04:44:24;14.80;99.90
25753;DHT22;13600;50.816;4.416;2022-10-16T04:46:51;14.80;99.90
25753;DHT22;13600;50.816;4.416;2022-10-16T04:49:17;14.90;99.90
25753;DHT22;13600;50.816;4.416;2022-10-16T04:51:42;14.80;99.90
25753;DHT22;13600;50.816;4.416;2022-10-16T04:54:09;14.80;99.90
25753;DHT22;13600;50.816;4.416;2022-10-16T04:56:35;14.70;99.90
25753;DHT22;13600;50.816;4.416;2022-10-16T04:59:08;15.00;99.90
25753;DHT22;13600;50.816;4.416;2022-10-16T05:01:33;14.90;99.90
25753;DHT22;13600;50.816;4.416;2022-10-16T05:03:59;14.90;99.90
25753;DHT22;13600;50.816;4.416;2022-10-16T05:06:25;14.90;99.90
25753;DHT22;13600;50.816;4.416;2022-10-16T05:08:50;14.80;99.90
25753;DHT22;13600;50.816;4.416;2022-10-16T05:11:16;14.90;99.90
25753;DHT22;13600;50.816;4.416;2022-10-16T05:13:42;14.80;99.90
25753;DHT22;13600;50.816;4.416;2022-10-16T05:16:07;14.80;99.90
25753;DHT22;13600;50.816;4.416;2022-10-16T05:18:34;14.90;99.90
25753;DHT22;13600;50.816;4.416;2022-10-16T05:21:01;14.80;99.90
25753;DHT22;13600;50.816;4.416;2022-10-16T05:23:27;14.70;99.90
25753;DHT22;13600;50.816;4.416;2022-10-16T05:25:55;14.70;99.90
25753;DHT22;13600;50.816;4.416;2022-10-16T05:28:26;14.70;99.90
25753;DHT22;13600;50.816;4.416;2022-10-16T05:30:52;14.70;99.90
25753;DHT22;13600;50.816;4.416;2022-10-16T05:33:20;14.90;99.90
25753;DHT22;13600;50.816;4.416;2022-10-16T05:35:46;14.70;99.90
25753;DHT22;13600;50.816;4.416;2022-10-16T05:38:12;14.80;99.90
25753;DHT22;13600;50.816;4.416;2022-10-16T05:40:37;14.80;99.90
25753;DHT22;13600;50.816;4.416;2022-10-16T05:43:03;14.90;99.90
25753;DHT22;13600;50.816;4.416;2022-10-16T05:45:29;14.70;99.90
25753;DHT22;13600;50.816;4.416;2022-10-16T05:47:55;14.60;99.90
25753;DHT22;13600;50.816;4.416;2022-10-16T05:50:20;14.60;99.90
25753;DHT22;13600;50.816;4.416;2022-10-16T05:52:46;14.40;99.90
25753;DHT22;13600;50.816;4.416;2022-10-16T05:55:11;14.40;99.90
25753;DHT22;13600;50.816;4.416;2022-10-16T05:57:37;14.40;99.90
25753;DHT22;13600;50.816;4.416;2022-10-16T06:00:04;14.50;99.90
25753;DHT22;13600;50.816;4.416;2022-10-16T06:02:30;14.50;99.90
25753;DHT22;13600;50.816;4.416;2022-10-16T06:04:55;14.50;99.90
25753;DHT22;13600;50.816;4.416;2022-10-16T06:07:22;14.40;99.90
25753;DHT22;13600;50.816;4.416;2022-10-16T06:09:52;14.30;99.90
25753;DHT22;13600;50.816;4.416;2022-10-16T06:12:18;14.40;99.90
25753;DHT22;13600;50.816;4.416;2022-10-16T06:14:45;14.30;99.90
25753;DHT22;13600;50.816;4.416;2022-10-16T06:17:13;14.50;99.90
25753;DHT22;13600;50.816;4.416;2022-10-16T06:19:39;14.40;99.90
25753;DHT22;13600;50.816;4.416;2022-10-16T06:22:04;14.30;99.90
25753;DHT22;13600;50.816;4.416;2022-10-16T06:24:30;14.30;99.90
25753;DHT22;13600;50.816;4.416;2022-10-16T06:26:55;14.30;99.90
25753;DHT22;13600;50.816;4.416;2022-10-16T06:29:21;14.30;99.90
25753;DHT22;13600;50.816;4.416;2022-10-16T06:31:47;14.40;99.90
25753;DHT22;13600;50.816;4.416;2022-10-16T06:34:13;14.50;99.90
25753;DHT22;13600;50.816;4.416;2022-10-16T06:36:39;14.80;99.90
25753;DHT22;13600;50.816;4.416;2022-10-16T06:39:05;14.60;99.90
25753;DHT22;13600;50.816;4.416;2022-10-16T06:41:33;14.60;99.90
25753;DHT22;13600;50.816;4.416;2022-10-16T06:43:58;14.50;99.90
25753;DHT22;13600;50.816;4.416;2022-10-16T06:46:25;14.60;99.90
25753;DHT22;13600;50.816;4.416;2022-10-16T06:48:51;14.70;99.90
25753;DHT22;13600;50.816;4.416;2022-10-16T06:51:19;14.80;99.90
25753;DHT22;13600;50.816;4.416;2022-10-16T06:53:47;15.00;99.90
25753;DHT22;13600;50.816;4.416;2022-10-16T06:58:43;15.10;99.90
25753;DHT22;13600;50.816;4.416;2022-10-16T07:01:12;15.10;99.90
25753;DHT22;13600;50.816;4.416;2022-10-16T07:03:39;15.20;99.90
25753;DHT22;13600;50.816;4.416;2022-10-16T07:06:07;15.20;99.90
25753;DHT22;13600;50.816;4.416;2022-10-16T07:08:34;15.20;99.90
25753;DHT22;13600;50.816;4.416;2022-10-16T07:11:05;15.30;99.90
25753;DHT22;13600;50.816;4.416;2022-10-16T07:13:38;15.40;99.90
25753;DHT22;13600;50.816;4.416;2022-10-16T07:18:31;15.60;99.90
25753;DHT22;13600;50.816;4.416;2022-10-16T07:21:08;15.60;99.90
25753;DHT22;13600;50.816;4.416;2022-10-16T07:23:34;15.90;99.90
25753;DHT22;13600;50.816;4.416;2022-10-16T07:25:59;15.80;99.90
25753;DHT22;13600;50.816;4.416;2022-10-16T07:28:25;15.70;99.90
25753;DHT22;13600;50.816;4.416;2022-10-16T07:30:51;15.60;99.90
25753;DHT22;13600;50.816;4.416;2022-10-16T07:33:17;15.70;99.90
25753;DHT22;13600;50.816;4.416;2022-10-16T07:35:53;15.60;99.90
25753;DHT22;13600;50.816;4.416;2022-10-16T07:38:20;15.80;99.90
25753;DHT22;13600;50.816;4.416;2022-10-16T07:40:47;15.90;99.90
25753;DHT22;13600;50.816;4.416;2022-10-16T07:43:13;15.90;99.90
25753;DHT22;13600;50.816;4.416;2022-10-16T07:45:48;16.00;99.90
25753;DHT22;13600;50.816;4.416;2022-10-16T07:48:15;16.10;99.90
25753;DHT22;13600;50.816;4.416;2022-10-16T07:50:41;16.20;99.90
25753;DHT22;13600;50.816;4.416;2022-10-16T07:53:07;16.20;99.90
25753;DHT22;13600;50.816;4.416;2022-10-16T07:55:33;16.20;99.90
25753;DHT22;13600;50.816;4.416;2022-10-16T07:57:58;16.30;99.90
25753;DHT22;13600;50.816;4.416;2022-10-16T08:00:24;16.30;99.90
25753;DHT22;13600;50.816;4.416;2022-10-16T08:02:50;16.40;99.90
25753;DHT22;13600;50.816;4.416;2022-10-16T08:05:15;16.50;99.90
25753;DHT22;13600;50.816;4.416;2022-10-16T08:07:41;16.60;99.90
25753;DHT22;13600;50.816;4.416;2022-10-16T08:10:21;16.80;99.90
25753;DHT22;13600;50.816;4.416;2022-10-16T08:12:47;16.80;99.90
25753;DHT22;13600;50.816;4.416;2022-10-16T08:15:13;16.90;99.90
25753;DHT22;13600;50.816;4.416;2022-10-16T08:17:38;17.10;99.90
25753;DHT22;13600;50.816;4.416;2022-10-16T08:20:05;17.20;99.90
25753;DHT22;13600;50.816;4.416;2022-10-16T08:22:30;17.30;99.90
25753;DHT22;13600;50.816;4.416;2022-10-16T08:24:56;17.50;99.90
25753;DHT22;13600;50.816;4.416;2022-10-16T08:27:22;17.60;99.90
25753;DHT22;13600;50.816;4.416;2022-10-16T08:29:51;17.70;99.90
25753;DHT22;13600;50.816;4.416;2022-10-16T08:32:16;17.90;99.90
25753;DHT22;13600;50.816;4.416;2022-10-16T08:34:42;18.20;99.90
25753;DHT22;13600;50.816;4.416;2022-10-16T08:37:08;18.80;99.90
25753;DHT22;13600;50.816;4.416;2022-10-16T08:39:36;19.60;99.90
25753;DHT22;13600;50.816;4.416;2022-10-16T08:42:31;21.20;99.90
25753;DHT22;13600;50.816;4.416;2022-10-16T08:50:39;26.20;99.90
25753;DHT22;13600;50.816;4.416;2022-10-16T08:53:06;27.60;99.90
25753;DHT22;13600;50.816;4.416;2022-10-16T08:55:49;29.20;99.90
25753;DHT22;13600;50.816;4.416;2022-10-16T08:58:26;30.10;99.40
25753;DHT22;13600;50.816;4.416;2022-10-16T09:00:58;29.20;96.90
25753;DHT22;13600;50.816;4.416;2022-10-16T09:03:39;30.00;96.60
25753;DHT22;13600;50.816;4.416;2022-10-16T09:11:36;31.70;91.70
25753;DHT22;13600;50.816;4.416;2022-10-16T09:16:57;31.20;91.10
25753;DHT22;13600;50.816;4.416;2022-10-16T09:19:37;31.50;90.20
25753;DHT22;13600;50.816;4.416;2022-10-16T09:22:14;31.50;87.70
25753;DHT22;13600;50.816;4.416;2022-10-16T09:24:40;31.90;86.70
25753;DHT22;13600;50.816;4.416;2022-10-16T09:27:11;33.50;84.70
25753;DHT22;13600;50.816;4.416;2022-10-16T09:29:37;33.10;82.10
25753;DHT22;13600;50.816;4.416;2022-10-16T09:32:22;33.90;80.10
25753;DHT22;13600;50.816;4.416;2022-10-16T09:34:53;34.80;77.60
25753;DHT22;13600;50.816;4.416;2022-10-16T09:37:21;35.60;74.40
25753;DHT22;13600;50.816;4.416;2022-10-16T09:42:19;36.00;69.30
25753;DHT22;13600;50.816;4.416;2022-10-16T09:44:51;36.10;67.70
25753;DHT22;13600;50.816;4.416;2022-10-16T09:47:23;36.60;67.00
25753;DHT22;13600;50.816;4.416;2022-10-16T09:50:00;36.80;65.40
25753;DHT22;13600;50.816;4.416;2022-10-16T09:52:31;37.00;63.50
25753;DHT22;13600;50.816;4.416;2022-10-16T09:54:59;36.10;62.90
25753;DHT22;13600;50.816;4.416;2022-10-16T09:57:26;35.60;64.00
25753;DHT22;13600;50.816;4.416;2022-10-16T09:59:56;36.00;65.10
25753;DHT22;13600;50.816;4.416;2022-10-16T10:02:34;35.50;65.20
25753;DHT22;13600;50.816;4.416;2022-10-16T10:05:01;35.90;65.10
25753;DHT22;13600;50.816;4.416;2022-10-16T10:07:42;36.70;63.00
25753;DHT22;13600;50.816;4.416;2022-10-16T10:10:27;35.80;62.70
25753;DHT22;13600;50.816;4.416;2022-10-16T10:12:54;34.70;64.90
25753;DHT22;13600;50.816;4.416;2022-10-16T10:15:21;34.60;65.00
25753;DHT22;13600;50.816;4.416;2022-10-16T10:20:35;33.30;66.50
25753;DHT22;13600;50.816;4.416;2022-10-16T10:23:23;33.80;67.00
25753;DHT22;13600;50.816;4.416;2022-10-16T10:28:59;36.50;63.00
25753;DHT22;13600;50.816;4.416;2022-10-16T10:34:55;39.00;57.50
25753;DHT22;13600;50.816;4.416;2022-10-16T10:37:29;38.20;58.50
25753;DHT22;13600;50.816;4.416;2022-10-16T10:42:52;35.10;62.90
25753;DHT22;13600;50.816;4.416;2022-10-16T10:45:42;35.00;60.80
25753;DHT22;13600;50.816;4.416;2022-10-16T10:51:07;33.40;64.90
25753;DHT22;13600;50.816;4.416;2022-10-16T11:01:53;33.70;64.10
25753;DHT22;13600;50.816;4.416;2022-10-16T11:04:34;34.40;64.10
25753;DHT22;13600;50.816;4.416;2022-10-16T11:07:12;36.00;62.40
25753;DHT22;13600;50.816;4.416;2022-10-16T11:09:45;36.30;60.30
25753;DHT22;13600;50.816;4.416;2022-10-16T11:15:11;37.70;58.60
25753;DHT22;13600;50.816;4.416;2022-10-16T11:18:08;38.20;58.10
25753;DHT22;13600;50.816;4.416;2022-10-16T11:20:49;38.60;55.70
25753;DHT22;13600;50.816;4.416;2022-10-16T11:23:21;37.00;55.50
25753;DHT22;13600;50.816;4.416;2022-10-16T11:25:49;37.20;57.40
25753;DHT22;13600;50.816;4.416;2022-10-16T11:33:45;36.60;58.60
25753;DHT22;13600;50.816;4.416;2022-10-16T11:36:19;36.10;58.20
25753;DHT22;13600;50.816;4.416;2022-10-16T11:46:51;35.40;58.50
25753;DHT22;13600;50.816;4.416;2022-10-16T11:49:22;34.10;59.10
25753;DHT22;13600;50.816;4.416;2022-10-16T11:52:02;32.40;61.30
25753;DHT22;13600;50.816;4.416;2022-10-16T11:54:54;31.00;65.10
25753;DHT22;13600;50.816;4.416;2022-10-16T11:57:24;29.90;68.60
25753;DHT22;13600;50.816;4.416;2022-10-16T12:02:50;28.80;72.50
25753;DHT22;13600;50.816;4.416;2022-10-16T12:08:11;27.50;76.90
25753;DHT22;13600;50.816;4.416;2022-10-16T12:10:40;27.10;77.70
25753;DHT22;13600;50.816;4.416;2022-10-16T12:13:31;26.90;78.60
25753;DHT22;13600;50.816;4.416;2022-10-16T12:18:40;26.80;82.20
25753;DHT22;13600;50.816;4.416;2022-10-16T12:21:06;26.30;83.50
25753;DHT22;13600;50.816;4.416;2022-10-16T12:23:50;25.80;87.50
25753;DHT22;13600;50.816;4.416;2022-10-16T12:26:33;25.50;89.70
25753;DHT22;13600;50.816;4.416;2022-10-16T12:31:45;25.70;90.30
25753;DHT22;13600;50.816;4.416;2022-10-16T12:34:27;26.60;88.00
25753;DHT22;13600;50.816;4.416;2022-10-16T12:36:55;27.20;86.60
25753;DHT22;13600;50.816;4.416;2022-10-16T12:39:23;27.50;85.60
25753;DHT22;13600;50.816;4.416;2022-10-16T12:42:05;27.20;86.10
25753;DHT22;13600;50.816;4.416;2022-10-16T12:44:35;26.80;88.10
25753;DHT22;13600;50.816;4.416;2022-10-16T12:47:02;26.60;88.90
25753;DHT22;13600;50.816;4.416;2022-10-16T12:51:53;25.90;91.30
25753;DHT22;13600;50.816;4.416;2022-10-16T13:00:26;25.30;94.30
25753;DHT22;13600;50.816;4.416;2022-10-16T13:03:10;24.80;95.40
25753;DHT22;13600;50.816;4.416;2022-10-16T13:08:34;24.30;97.90
25753;DHT22;13600;50.816;4.416;2022-10-16T13:14:09;24.40;99.80
25753;DHT22;13600;50.816;4.416;2022-10-16T13:17:16;24.50;99.90
25753;DHT22;13600;50.816;4.416;2022-10-16T13:30:39;25.10;99.20
25753;DHT22;13600;50.816;4.416;2022-10-16T13:35:45;24.80;99.90
25753;DHT22;13600;50.816;4.416;2022-10-16T13:38:17;25.60;98.70
25753;DHT22;13600;50.816;4.416;2022-10-16T13:43:23;26.70;94.50
25753;DHT22;13600;50.816;4.416;2022-10-16T13:46:04;26.20;95.80
25753;DHT22;13600;50.816;4.416;2022-10-16T13:48:32;25.70;96.90
25753;DHT22;13600;50.816;4.416;2022-10-16T13:51:14;25.10;98.80
25753;DHT22;13600;50.816;4.416;2022-10-16T13:53:40;24.90;99.90
25753;DHT22;13600;50.816;4.416;2022-10-16T13:56:18;24.80;99.80
25753;DHT22;13600;50.816;4.416;2022-10-16T13:58:43;24.60;99.90
25753;DHT22;13600;50.816;4.416;2022-10-16T14:01:23;24.50;99.80
25753;DHT22;13600;50.816;4.416;2022-10-16T14:03:51;24.40;99.90
25753;DHT22;13600;50.816;4.416;2022-10-16T14:06:22;24.30;99.90
25753;DHT22;13600;50.816;4.416;2022-10-16T14:09:00;24.00;99.90
25753;DHT22;13600;50.816;4.416;2022-10-16T14:11:26;23.90;99.90
25753;DHT22;13600;50.816;4.416;2022-10-16T14:13:53;23.70;99.90
25753;DHT22;13600;50.816;4.416;2022-10-16T14:16:25;23.70;99.90
25753;DHT22;13600;50.816;4.416;2022-10-16T14:18:59;23.50;99.90
25753;DHT22;13600;50.816;4.416;2022-10-16T14:21:26;23.40;99.90
25753;DHT22;13600;50.816;4.416;2022-10-16T14:23:52;23.40;99.90
25753;DHT22;13600;50.816;4.416;2022-10-16T14:26:25;23.50;99.90
25753;DHT22;13600;50.816;4.416;2022-10-16T14:29:08;23.40;99.90
25753;DHT22;13600;50.816;4.416;2022-10-16T14:31:35;23.60;99.90
25753;DHT22;13600;50.816;4.416;2022-10-16T14:34:02;23.60;99.90
25753;DHT22;13600;50.816;4.416;2022-10-16T14:36:28;23.70;99.90
25753;DHT22;13600;50.816;4.416;2022-10-16T14:38:57;23.80;99.90
25753;DHT22;13600;50.816;4.416;2022-10-16T14:41:23;23.80;99.90
25753;DHT22;13600;50.816;4.416;2022-10-16T14:43:54;23.80;99.90
25753;DHT22;13600;50.816;4.416;2022-10-16T14:46:23;23.70;99.90
25753;DHT22;13600;50.816;4.416;2022-10-16T14:51:33;23.50;99.90
25753;DHT22;13600;50.816;4.416;2022-10-16T14:53:59;23.50;99.90
25753;DHT22;13600;50.816;4.416;2022-10-16T14:56:29;23.50;99.90
25753;DHT22;13600;50.816;4.416;2022-10-16T14:58:55;23.40;99.90
25753;DHT22;13600;50.816;4.416;2022-10-16T15:01:21;23.30;99.90
25753;DHT22;13600;50.816;4.416;2022-10-16T15:03:47;23.20;99.90
25753;DHT22;13600;50.816;4.416;2022-10-16T15:06:15;23.20;99.90
25753;DHT22;13600;50.816;4.416;2022-10-16T15:08:41;23.10;99.90
25753;DHT22;13600;50.816;4.416;2022-10-16T15:11:15;23.10;99.90
25753;DHT22;13600;50.816;4.416;2022-10-16T15:13:43;23.10;99.90
25753;DHT22;13600;50.816;4.416;2022-10-16T15:16:11;23.10;99.90
25753;DHT22;13600;50.816;4.416;2022-10-16T15:18:37;23.00;99.90
25753;DHT22;13600;50.816;4.416;2022-10-16T15:21:03;22.90;99.90
25753;DHT22;13600;50.816;4.416;2022-10-16T15:23:29;22.90;99.90
25753;DHT22;13600;50.816;4.416;2022-10-16T15:25:56;22.90;99.90
25753;DHT22;13600;50.816;4.416;2022-10-16T15:28:23;22.80;99.90
25753;DHT22;13600;50.816;4.416;2022-10-16T15:30:50;22.70;99.90
25753;DHT22;13600;50.816;4.416;2022-10-16T15:33:21;22.60;99.90
25753;DHT22;13600;50.816;4.416;2022-10-16T15:35:51;22.40;99.90
25753;DHT22;13600;50.816;4.416;2022-10-16T15:38:19;22.70;99.90
25753;DHT22;13600;50.816;4.416;2022-10-16T15:40:47;22.60;99.90
25753;DHT22;13600;50.816;4.416;2022-10-16T15:43:13;22.50;99.90
25753;DHT22;13600;50.816;4.416;2022-10-16T15:45:39;22.30;99.90
25753;DHT22;13600;50.816;4.416;2022-10-16T15:48:05;22.10;99.90
25753;DHT22;13600;50.816;4.416;2022-10-16T15:50:31;22.00;99.90
25753;DHT22;13600;50.816;4.416;2022-10-16T15:52:58;22.00;99.90
25753;DHT22;13600;50.816;4.416;2022-10-16T15:55:23;21.80;99.90
25753;DHT22;13600;50.816;4.416;2022-10-16T15:57:49;21.70;99.90
25753;DHT22;13600;50.816;4.416;2022-10-16T16:00:17;21.60;99.90
25753;DHT22;13600;50.816;4.416;2022-10-16T16:02:44;21.60;99.90
25753;DHT22;13600;50.816;4.416;2022-10-16T16:05:14;21.60;99.90
25753;DHT22;13600;50.816;4.416;2022-10-16T16:07:40;21.60;99.90
25753;DHT22;13600;50.816;4.416;2022-10-16T16:10:08;21.70;99.90
25753;DHT22;13600;50.816;4.416;2022-10-16T16:12:35;21.80;99.90
25753;DHT22;13600;50.816;4.416;2022-10-16T16:15:00;21.80;99.90
25753;DHT22;13600;50.816;4.416;2022-10-16T16:17:30;21.70;99.90
25753;DHT22;13600;50.816;4.416;2022-10-16T16:19:56;21.70;99.90
25753;DHT22;13600;50.816;4.416;2022-10-16T16:22:21;21.50;99.90
25753;DHT22;13600;50.816;4.416;2022-10-16T16:24:47;21.30;99.90
25753;DHT22;13600;50.816;4.416;2022-10-16T16:27:18;21.10;99.90
25753;DHT22;13600;50.816;4.416;2022-10-16T16:29:45;21.00;99.90
25753;DHT22;13600;50.816;4.416;2022-10-16T16:32:11;21.00;99.90
25753;DHT22;13600;50.816;4.416;2022-10-16T16:34:37;21.10;99.90
25753;DHT22;13600;50.816;4.416;2022-10-16T16:37:02;21.00;99.90
25753;DHT22;13600;50.816;4.416;2022-10-16T16:39:28;20.90;99.90
25753;DHT22;13600;50.816;4.416;2022-10-16T16:41:56;20.70;99.90
25753;DHT22;13600;50.816;4.416;2022-10-16T16:44:22;20.60;99.90
25753;DHT22;13600;50.816;4.416;2022-10-16T16:46:48;20.50;99.90
25753;DHT22;13600;50.816;4.416;2022-10-16T16:49:14;20.50;99.90
25753;DHT22;13600;50.816;4.416;2022-10-16T16:51:40;20.40;99.90
25753;DHT22;13600;50.816;4.416;2022-10-16T16:54:07;20.30;99.90
25753;DHT22;13600;50.816;4.416;2022-10-16T16:56:34;20.30;99.90
25753;DHT22;13600;50.816;4.416;2022-10-16T16:59:00;20.40;99.90
25753;DHT22;13600;50.816;4.416;2022-10-16T17:01:27;20.50;99.90
25753;DHT22;13600;50.816;4.416;2022-10-16T17:03:54;20.50;99.90
25753;DHT22;13600;50.816;4.416;2022-10-16T17:06:23;20.50;99.90
25753;DHT22;13600;50.816;4.416;2022-10-16T17:08:50;20.40;99.90
25753;DHT22;13600;50.816;4.416;2022-10-16T17:11:21;20.30;99.90
25753;DHT22;13600;50.816;4.416;2022-10-16T17:13:47;20.10;99.90
25753;DHT22;13600;50.816;4.416;2022-10-16T17:16:13;20.10;99.90
25753;DHT22;13600;50.816;4.416;2022-10-16T17:18:39;20.00;99.90
25753;DHT22;13600;50.816;4.416;2022-10-16T17:21:07;19.90;99.90
25753;DHT22;13600;50.816;4.416;2022-10-16T17:23:34;19.80;99.90
25753;DHT22;13600;50.816;4.416;2022-10-16T17:26:05;19.70;99.90
25753;DHT22;13600;50.816;4.416;2022-10-16T17:28:31;19.60;99.90
25753;DHT22;13600;50.816;4.416;2022-10-16T17:31:06;19.60;99.90
25753;DHT22;13600;50.816;4.416;2022-10-16T17:33:32;19.50;99.90
25753;DHT22;13600;50.816;4.416;2022-10-16T17:35:58;19.50;99.90
25753;DHT22;13600;50.816;4.416;2022-10-16T17:38:23;19.40;99.90
25753;DHT22;13600;50.816;4.416;2022-10-16T17:40:49;19.40;99.90
25753;DHT22;13600;50.816;4.416;2022-10-16T17:43:15;19.60;99.90